createdAt,value
2023-05-16T00:00:55.552Z,67.80
2023-05-16T00:03:22.969Z,67.80
2023-05-16T00:05:50.756Z,67.80
2023-05-16T00:08:20.282Z,67.80
2023-05-16T00:10:47.545Z,67.70
2023-05-16T00:13:15.040Z,67.80
2023-05-16T00:15:43.971Z,67.90
2023-05-16T00:18:14.842Z,67.80
2023-05-16T00:20:44.630Z,67.80
2023-05-16T00:23:12.942Z,67.90
2023-05-16T00:25:42.642Z,67.80
2023-05-16T00:28:12.475Z,67.80
2023-05-16T00:30:42.317Z,67.70
2023-05-16T00:33:09.647Z,67.70
2023-05-16T00:35:36.964Z,67.60
2023-05-16T00:38:04.226Z,67.70
2023-05-16T00:40:36.015Z,67.60
2023-05-16T00:43:05.737Z,67.60
2023-05-16T00:45:32.976Z,67.70
2023-05-16T00:48:00.437Z,67.70
2023-05-16T00:50:30.320Z,67.50
2023-05-16T00:52:57.632Z,67.40
2023-05-16T00:55:25.372Z,67.70
2023-05-16T00:57:52.960Z,67.50
2023-05-16T01:00:20.514Z,67.40
2023-05-16T01:02:53.404Z,67.40
2023-05-16T01:05:21.274Z,67.30
2023-05-16T01:07:51.105Z,67.30
2023-05-16T01:10:18.360Z,67.40
2023-05-16T01:12:58.012Z,67.30
2023-05-16T01:15:30.012Z,67.30
2023-05-16T01:18:24.184Z,67.90
2023-05-16T01:21:01.105Z,67.30
2023-05-16T01:23:43.583Z,66.70
2023-05-16T01:26:19.934Z,67.30
2023-05-16T01:28:48.910Z,67.40
2023-05-16T01:31:21.716Z,67.90
2023-05-16T01:33:49.650Z,67.30
2023-05-16T01:36:26.253Z,67.40
2023-05-16T01:39:21.997Z,67.30
2023-05-16T01:42:12.785Z,67.40
2023-05-16T01:44:58.399Z,67.40
2023-05-16T01:47:27.755Z,67.40
2023-05-16T01:49:58.711Z,67.30
2023-05-16T01:52:46.543Z,67.30
2023-05-16T01:55:28.304Z,67.20
2023-05-16T01:57:56.669Z,67.20
2023-05-16T02:00:23.976Z,67.20
2023-05-16T02:02:51.489Z,67.20
2023-05-16T02:05:18.739Z,67.20
2023-05-16T02:07:48.704Z,67.20
2023-05-16T02:10:16.031Z,67.30
2023-05-16T02:12:43.611Z,67.30
2023-05-16T02:15:14.542Z,67.30
2023-05-16T02:17:41.872Z,67.30
2023-05-16T02:20:10.342Z,67.40
2023-05-16T02:22:39.265Z,67.20
2023-05-16T02:25:10.027Z,67.40
2023-05-16T02:27:39.672Z,67.10
2023-05-16T02:30:10.238Z,67.20
2023-05-16T02:32:38.739Z,67.20
2023-05-16T02:35:08.424Z,67.20
2023-05-16T02:37:35.788Z,67.20
2023-05-16T02:40:07.590Z,67.10
2023-05-16T02:42:34.881Z,67.10
2023-05-16T02:45:02.206Z,67.20
2023-05-16T02:47:32.062Z,67.20
2023-05-16T02:50:01.686Z,67.10
2023-05-16T02:52:28.925Z,67.00
2023-05-16T02:55:15.995Z,67.00
2023-05-16T02:57:47.927Z,67.30
2023-05-16T03:00:17.743Z,67.10
2023-05-16T03:02:46.162Z,67.30
2023-05-16T03:05:17.058Z,67.00
2023-05-16T03:07:46.724Z,67.10
2023-05-16T03:10:13.965Z,67.00
2023-05-16T03:12:43.723Z,67.20
2023-05-16T03:15:11.151Z,67.20
2023-05-16T03:17:38.673Z,67.20
2023-05-16T03:20:10.042Z,67.30
2023-05-16T03:22:40.519Z,67.30
2023-05-16T03:25:10.744Z,67.40
2023-05-16T03:27:40.656Z,67.40
2023-05-16T03:30:10.911Z,67.30
2023-05-16T03:32:38.509Z,67.40
2023-05-16T03:35:06.080Z,67.40
2023-05-16T03:37:36.314Z,67.30
2023-05-16T03:40:05.677Z,67.30
2023-05-16T03:42:33.013Z,67.40
2023-05-16T03:45:00.263Z,67.40
2023-05-16T03:47:31.200Z,67.30
2023-05-16T03:50:01.011Z,67.30
2023-05-16T03:52:30.496Z,67.30
2023-05-16T03:55:01.978Z,67.20
2023-05-16T03:57:32.324Z,67.20
2023-05-16T04:00:00.314Z,67.20
2023-05-16T04:02:29.820Z,67.30
2023-05-16T04:04:57.148Z,67.30
2023-05-16T04:07:24.437Z,67.40
2023-05-16T04:09:52.381Z,67.50
2023-05-16T04:12:19.621Z,67.50
2023-05-16T04:14:49.441Z,67.70
2023-05-16T04:17:16.796Z,67.60
2023-05-16T04:19:47.058Z,67.70
2023-05-16T04:22:16.860Z,67.60
2023-05-16T04:24:46.543Z,67.60
2023-05-16T04:27:16.710Z,67.70
2023-05-16T04:29:44.545Z,67.70
2023-05-16T04:32:12.455Z,67.70
2023-05-16T04:34:40.595Z,67.80
2023-05-16T04:37:12.467Z,67.80
2023-05-16T04:39:44.298Z,67.70
2023-05-16T04:42:13.995Z,67.70
2023-05-16T04:44:42.315Z,67.80
2023-05-16T04:47:11.962Z,67.90
2023-05-16T04:49:39.248Z,68.10
2023-05-16T04:52:08.434Z,68.10
2023-05-16T04:54:39.063Z,68.20
2023-05-16T04:57:06.408Z,68.10
2023-05-16T04:59:36.265Z,68.10
2023-05-16T05:02:07.029Z,68.20
2023-05-16T05:04:34.512Z,68.30
2023-05-16T05:07:01.869Z,68.30
2023-05-16T05:09:31.610Z,68.10
2023-05-16T05:11:58.856Z,68.20
2023-05-16T05:14:31.090Z,68.40
2023-05-16T05:17:03.070Z,68.60
2023-05-16T05:19:30.514Z,68.50
2023-05-16T05:21:57.998Z,68.60
2023-05-16T05:24:28.013Z,68.70
2023-05-16T05:26:57.806Z,68.90
2023-05-16T05:29:25.146Z,68.80
2023-05-16T05:31:54.653Z,68.70
2023-05-16T05:34:26.629Z,68.60
2023-05-16T05:36:56.675Z,68.60
2023-05-16T05:39:28.518Z,68.70
2023-05-16T05:41:56.040Z,68.90
2023-05-16T05:44:23.307Z,68.80
2023-05-16T05:46:51.317Z,68.90
2023-05-16T05:49:21.193Z,68.90
2023-05-16T05:51:53.356Z,69.10
2023-05-16T05:54:20.954Z,69.10
2023-05-16T05:56:50.829Z,69.10
2023-05-16T05:59:18.129Z,69.20
2023-05-16T06:01:45.472Z,69.30
2023-05-16T06:04:17.405Z,69.40
2023-05-16T06:06:44.774Z,69.50
2023-05-16T06:09:13.750Z,69.60
2023-05-16T06:11:45.939Z,69.70
2023-05-16T06:14:16.876Z,69.70
2023-05-16T06:16:46.516Z,69.70
2023-05-16T06:19:18.724Z,69.80
2023-05-16T06:21:46.151Z,70.00
2023-05-16T06:24:16.104Z,70.20
2023-05-16T06:26:46.165Z,70.20
2023-05-16T06:29:13.593Z,70.10
2023-05-16T06:31:40.952Z,70.10
2023-05-16T06:34:11.284Z,70.20
2023-05-16T06:36:38.600Z,70.30
2023-05-16T06:39:08.100Z,70.40
2023-05-16T06:41:35.389Z,70.30
2023-05-16T06:44:05.082Z,70.40
2023-05-16T06:46:32.909Z,71.00
2023-05-16T06:49:00.491Z,71.00
2023-05-16T06:51:31.086Z,70.40
2023-05-16T06:53:58.574Z,70.50
2023-05-16T06:56:26.122Z,70.40
2023-05-16T06:58:53.605Z,70.60
2023-05-16T07:01:23.509Z,70.50
2023-05-16T07:03:53.328Z,70.40
2023-05-16T07:06:21.028Z,70.50
2023-05-16T07:08:50.610Z,70.50
2023-05-16T07:11:18.009Z,70.60
2023-05-16T07:13:47.521Z,70.60
2023-05-16T07:16:17.306Z,70.50
2023-05-16T07:18:46.800Z,70.40
2023-05-16T07:21:16.871Z,70.50
2023-05-16T07:23:46.809Z,70.50
2023-05-16T07:26:14.150Z,70.80
2023-05-16T07:28:46.492Z,70.70
2023-05-16T07:31:16.660Z,70.80
2023-05-16T07:33:46.938Z,70.80
2023-05-16T07:36:16.844Z,71.00
2023-05-16T07:38:49.866Z,71.00
2023-05-16T07:41:19.546Z,70.90
2023-05-16T07:43:52.221Z,71.30
2023-05-16T07:46:22.328Z,71.30
2023-05-16T07:48:52.239Z,71.30
2023-05-16T07:51:19.548Z,71.30
2023-05-16T07:53:47.064Z,71.20
2023-05-16T07:56:17.057Z,71.00
2023-05-16T07:58:48.812Z,71.10
2023-05-16T08:01:18.486Z,71.00
2023-05-16T08:03:45.805Z,71.20
2023-05-16T08:06:13.262Z,71.00
2023-05-16T08:08:42.857Z,71.10
2023-05-16T08:11:10.127Z,71.20
2023-05-16T08:13:37.433Z,71.30
2023-05-16T08:16:05.140Z,71.10
2023-05-16T08:18:32.662Z,70.90
2023-05-16T08:21:00.302Z,71.00
2023-05-16T08:23:27.579Z,70.90
2023-05-16T08:25:54.920Z,71.00
2023-05-16T08:28:27.015Z,70.90
2023-05-16T08:30:54.587Z,70.80
2023-05-16T08:33:21.899Z,70.70
2023-05-16T08:35:53.005Z,70.70
2023-05-16T08:38:24.652Z,70.90
2023-05-16T08:40:54.437Z,71.00
2023-05-16T08:43:26.619Z,71.00
2023-05-16T08:45:56.759Z,70.50
2023-05-16T08:48:25.923Z,70.70
2023-05-16T08:50:53.402Z,71.10
2023-05-16T08:53:26.663Z,71.20
2023-05-16T08:55:55.444Z,71.40
2023-05-16T08:58:25.564Z,71.40
2023-05-16T09:00:52.969Z,71.40
2023-05-16T09:03:21.529Z,71.50
2023-05-16T09:05:50.149Z,71.50
2023-05-16T09:08:17.812Z,71.50
2023-05-16T09:10:45.070Z,71.20
2023-05-16T09:13:12.535Z,71.20
2023-05-16T09:15:39.867Z,71.00
2023-05-16T09:18:14.631Z,71.00
2023-05-16T09:20:50.024Z,71.00
2023-05-16T09:23:25.036Z,71.20
2023-05-16T09:25:57.512Z,71.40
2023-05-16T09:28:28.809Z,71.50
2023-05-16T09:30:59.226Z,71.60
2023-05-16T09:33:29.982Z,71.50
2023-05-16T09:36:01.411Z,71.70
2023-05-16T09:38:29.101Z,71.70
2023-05-16T09:40:58.827Z,71.50
2023-05-16T09:43:29.050Z,71.80
2023-05-16T09:46:02.315Z,72.00
2023-05-16T09:48:29.841Z,72.10
2023-05-16T09:51:03.412Z,71.90
2023-05-16T09:53:32.564Z,71.90
2023-05-16T09:56:08.070Z,71.90
2023-05-16T09:58:37.882Z,71.80
2023-05-16T10:01:10.824Z,71.80
2023-05-16T10:03:40.939Z,71.70
2023-05-16T10:06:12.845Z,71.40
2023-05-16T10:08:43.006Z,71.30
2023-05-16T10:11:11.283Z,71.30
2023-05-16T10:13:40.063Z,71.40
2023-05-16T10:16:11.770Z,71.10
2023-05-16T10:18:42.834Z,71.30
2023-05-16T10:21:22.236Z,71.20
2023-05-16T10:23:51.847Z,71.10
2023-05-16T10:26:21.402Z,71.00
2023-05-16T10:28:49.404Z,71.00
2023-05-16T10:31:17.236Z,71.10
2023-05-16T10:33:50.548Z,70.90
2023-05-16T10:36:20.759Z,71.00
2023-05-16T10:38:48.395Z,71.10
2023-05-16T10:41:19.543Z,71.00
2023-05-16T10:43:59.852Z,71.20
2023-05-16T10:46:31.791Z,71.30
2023-05-16T10:48:59.338Z,71.30
2023-05-16T10:51:39.114Z,71.30
2023-05-16T10:54:15.540Z,71.60
2023-05-16T10:56:43.545Z,71.70
2023-05-16T10:59:29.169Z,71.60
2023-05-16T11:01:56.901Z,71.60
2023-05-16T11:04:44.473Z,71.40
2023-05-16T11:07:13.913Z,71.30
2023-05-16T11:09:45.393Z,71.80
2023-05-16T11:12:13.209Z,72.30
2023-05-16T11:14:47.733Z,72.10
2023-05-16T11:17:22.820Z,71.70
2023-05-16T11:19:59.646Z,72.00
2023-05-16T11:22:29.399Z,72.80
2023-05-16T11:25:04.334Z,72.10
2023-05-16T11:27:36.747Z,72.20
2023-05-16T11:30:09.623Z,72.60
2023-05-16T11:32:38.895Z,72.90
2023-05-16T11:35:08.952Z,72.60
2023-05-16T11:37:36.884Z,72.80
2023-05-16T11:40:08.547Z,72.80
2023-05-16T11:42:42.464Z,73.00
2023-05-16T11:45:16.196Z,73.20
2023-05-16T11:47:45.734Z,73.30
2023-05-16T11:50:22.309Z,73.10
2023-05-16T11:52:57.449Z,73.40
2023-05-16T11:58:02.125Z,73.50
2023-05-16T12:00:31.621Z,73.40
2023-05-16T12:03:04.993Z,73.60
2023-05-16T12:05:36.170Z,73.90
2023-05-16T12:08:06.731Z,74.00
2023-05-16T12:10:36.577Z,74.60
2023-05-16T12:13:04.624Z,74.20
2023-05-16T12:15:34.551Z,74.10
2023-05-16T12:18:02.496Z,74.00
2023-05-16T12:20:30.167Z,74.00
2023-05-16T12:23:00.621Z,73.80
2023-05-16T12:25:32.532Z,73.90
2023-05-16T12:28:07.791Z,73.90
2023-05-16T12:30:35.505Z,74.10
2023-05-16T12:33:08.497Z,73.70
2023-05-16T12:35:42.526Z,73.50
2023-05-16T12:38:14.880Z,73.90
2023-05-16T12:40:43.809Z,74.00
2023-05-16T12:43:24.301Z,73.90
2023-05-16T12:45:58.926Z,73.80
2023-05-16T12:48:34.360Z,73.60
2023-05-16T12:51:15.848Z,73.80
2023-05-16T12:54:01.304Z,73.60
2023-05-16T12:56:31.587Z,73.30
2023-05-16T12:58:58.886Z,73.40
2023-05-16T13:01:26.292Z,73.50
2023-05-16T13:03:53.797Z,73.50
2023-05-16T13:06:21.458Z,73.00
2023-05-16T13:08:48.770Z,73.50
2023-05-16T13:11:16.017Z,74.20
2023-05-16T13:13:45.580Z,73.90
2023-05-16T13:16:15.553Z,73.90
2023-05-16T13:18:42.916Z,74.00
2023-05-16T13:21:10.434Z,74.00
2023-05-16T13:23:38.048Z,73.90
2023-05-16T13:26:05.581Z,73.70
2023-05-16T13:28:32.992Z,73.50
2023-05-16T13:31:00.869Z,73.30
2023-05-16T13:33:28.422Z,73.10
2023-05-16T13:36:01.612Z,73.00
2023-05-16T13:38:28.946Z,73.10
2023-05-16T13:40:56.208Z,73.10
2023-05-16T13:43:25.893Z,73.10
2023-05-16T13:45:55.475Z,73.20
2023-05-16T13:48:25.250Z,73.40
2023-05-16T13:50:53.709Z,73.00
2023-05-16T13:53:21.018Z,73.00
2023-05-16T13:55:48.307Z,72.40
2023-05-16T13:58:15.977Z,72.20
2023-05-16T14:00:45.732Z,71.70
2023-05-16T14:03:16.014Z,71.30
2023-05-16T14:05:45.957Z,71.60
2023-05-16T14:08:14.380Z,71.60
2023-05-16T14:10:41.719Z,71.70
2023-05-16T14:13:11.529Z,71.70
2023-05-16T14:15:38.881Z,71.80
2023-05-16T14:18:07.534Z,71.60
2023-05-16T14:20:37.411Z,71.70
2023-05-16T14:23:04.729Z,71.70
2023-05-16T14:25:32.069Z,71.80
2023-05-16T14:28:01.954Z,72.20
2023-05-16T14:30:31.761Z,72.50
2023-05-16T14:32:59.485Z,72.60
2023-05-16T14:35:27.368Z,72.80
2023-05-16T14:37:59.495Z,73.00
2023-05-16T14:40:29.021Z,73.10
2023-05-16T14:42:56.346Z,73.00
2023-05-16T14:45:26.092Z,73.10
2023-05-16T14:47:53.719Z,73.40
2023-05-16T14:50:21.291Z,73.40
2023-05-16T14:52:48.604Z,73.40
2023-05-16T14:55:18.176Z,73.50
2023-05-16T14:57:50.434Z,73.50
2023-05-16T15:00:26.548Z,73.60
2023-05-16T15:02:54.371Z,73.60
2023-05-16T15:05:25.701Z,73.70
2023-05-16T15:07:53.219Z,73.70
2023-05-16T15:10:20.669Z,73.80
2023-05-16T15:12:53.082Z,73.80
2023-05-16T15:15:20.464Z,73.80
2023-05-16T15:17:50.313Z,73.90
2023-05-16T15:20:17.672Z,73.90
2023-05-16T15:22:44.937Z,73.90
2023-05-16T15:25:12.299Z,73.90
2023-05-16T15:27:39.713Z,73.90
2023-05-16T15:30:08.307Z,73.80
2023-05-16T15:32:38.102Z,73.80
2023-05-16T15:35:08.192Z,73.80
2023-05-16T15:37:35.926Z,73.80
2023-05-16T15:40:05.134Z,73.60
2023-05-16T15:42:35.439Z,73.60
2023-05-16T15:45:03.583Z,73.60
2023-05-16T15:47:33.175Z,73.70
2023-05-16T15:50:03.083Z,74.00
2023-05-16T15:52:32.968Z,73.90
2023-05-16T15:55:00.261Z,74.00
2023-05-16T15:57:27.621Z,74.10
2023-05-16T15:59:56.896Z,74.10
2023-05-16T16:02:24.436Z,74.30
2023-05-16T16:04:51.909Z,74.30
2023-05-16T16:07:19.191Z,74.30
2023-05-16T16:09:49.388Z,74.40
2023-05-16T16:12:16.705Z,74.30
2023-05-16T16:14:44.272Z,74.40
2023-05-16T16:17:11.690Z,74.40
2023-05-16T16:19:43.631Z,74.50
2023-05-16T16:22:10.944Z,74.40
2023-05-16T16:24:40.888Z,74.50
2023-05-16T16:27:10.588Z,74.30
2023-05-16T16:29:40.139Z,74.40
2023-05-16T16:32:07.973Z,74.50
2023-05-16T16:34:35.542Z,74.50
2023-05-16T16:37:02.813Z,74.50
2023-05-16T16:39:32.775Z,74.60
2023-05-16T16:42:00.701Z,74.60
2023-05-16T16:44:30.310Z,74.50
2023-05-16T16:47:00.127Z,74.60
2023-05-16T16:49:27.445Z,74.50
2023-05-16T16:51:57.845Z,74.50
2023-05-16T16:54:25.271Z,74.50
2023-05-16T16:56:52.645Z,74.50
2023-05-16T16:59:22.384Z,74.60
2023-05-16T17:01:53.181Z,74.60
2023-05-16T17:04:22.622Z,74.60
2023-05-16T17:06:52.212Z,74.60
2023-05-16T17:09:22.032Z,74.60
2023-05-16T17:11:49.387Z,74.60
2023-05-16T17:14:18.778Z,74.60
2023-05-16T17:16:46.289Z,74.70
2023-05-16T17:19:13.702Z,74.70
2023-05-16T17:21:41.137Z,74.80
2023-05-16T17:24:08.696Z,74.70
2023-05-16T17:26:39.160Z,74.80
2023-05-16T17:29:08.628Z,74.60
2023-05-16T17:31:38.553Z,74.60
2023-05-16T17:34:05.900Z,74.80
2023-05-16T17:36:33.157Z,74.60
2023-05-16T17:39:07.820Z,74.60
2023-05-16T17:41:38.171Z,74.60
2023-05-16T17:44:08.089Z,74.60
2023-05-16T17:46:38.264Z,74.50
2023-05-16T17:49:08.179Z,74.60
2023-05-16T17:51:54.574Z,74.60
2023-05-16T17:54:22.520Z,74.80
2023-05-16T17:56:50.933Z,74.70
2023-05-16T17:59:21.104Z,74.50
2023-05-16T18:01:50.862Z,74.60
2023-05-16T18:04:22.477Z,74.50
2023-05-16T18:06:52.909Z,74.40
2023-05-16T18:09:24.242Z,74.30
2023-05-16T18:11:51.607Z,74.40
2023-05-16T18:14:23.671Z,74.40
2023-05-16T18:16:51.150Z,75.10
2023-05-16T18:19:21.712Z,74.40
2023-05-16T18:21:53.932Z,74.40
2023-05-16T18:24:21.213Z,74.40
2023-05-16T18:26:51.129Z,74.50
2023-05-16T18:29:18.436Z,74.50
2023-05-16T18:31:50.209Z,74.60
2023-05-16T18:34:17.527Z,74.50
2023-05-16T18:36:48.606Z,74.60
2023-05-16T18:39:17.870Z,74.50
2023-05-16T18:41:48.393Z,74.40
2023-05-16T18:44:18.499Z,74.40
2023-05-16T18:46:46.643Z,74.40
2023-05-16T18:49:16.799Z,74.40
2023-05-16T18:51:44.491Z,74.40
2023-05-16T18:54:14.246Z,74.50
2023-05-16T18:56:42.938Z,74.50
2023-05-16T18:59:12.523Z,74.30
2023-05-16T19:01:39.941Z,74.40
2023-05-16T19:04:07.390Z,74.50
2023-05-16T19:06:42.045Z,74.60
2023-05-16T19:09:09.470Z,74.60
2023-05-16T19:11:41.604Z,74.60
2023-05-16T19:14:11.615Z,74.60
2023-05-16T19:16:41.291Z,74.60
2023-05-16T19:19:13.377Z,74.80
2023-05-16T19:21:43.279Z,74.80
2023-05-16T19:24:12.843Z,74.80
2023-05-16T19:26:40.181Z,74.70
2023-05-16T19:29:07.504Z,74.80
2023-05-16T19:31:34.818Z,74.80
2023-05-16T19:34:02.121Z,74.80
2023-05-16T19:36:29.440Z,74.80
2023-05-16T19:38:56.755Z,74.90
2023-05-16T19:41:24.691Z,75.00
2023-05-16T19:43:54.302Z,75.00
2023-05-16T19:46:21.665Z,75.00
2023-05-16T19:48:52.500Z,75.10
2023-05-16T19:51:33.127Z,75.20
2023-05-16T19:54:07.774Z,75.30
2023-05-16T19:56:35.109Z,75.20
2023-05-16T19:59:02.373Z,75.10
2023-05-16T20:01:29.649Z,75.20
2023-05-16T20:04:00.673Z,75.10
2023-05-16T20:06:30.227Z,75.10
2023-05-16T20:08:57.632Z,75.10
2023-05-16T20:11:24.951Z,75.10
2023-05-16T20:13:55.752Z,75.10
2023-05-16T20:16:23.132Z,75.00
2023-05-16T20:18:52.832Z,75.60
2023-05-16T20:21:20.265Z,74.90
2023-05-16T20:23:47.576Z,74.80
2023-05-16T20:26:15.298Z,74.70
2023-05-16T20:28:42.812Z,74.60
2023-05-16T20:31:10.222Z,74.40
2023-05-16T20:33:37.584Z,74.30
2023-05-16T20:36:05.056Z,74.20
2023-05-16T20:38:32.368Z,74.20
2023-05-16T20:41:00.097Z,74.20
2023-05-16T20:43:27.420Z,74.00
2023-05-16T20:45:57.205Z,73.90
2023-05-16T20:48:24.601Z,73.90
2023-05-16T20:50:52.182Z,73.90
2023-05-16T20:53:21.814Z,73.70
2023-05-16T20:55:51.540Z,73.80
2023-05-16T20:58:21.436Z,73.80
2023-05-16T21:00:53.103Z,73.70
2023-05-16T21:03:22.859Z,73.70
2023-05-16T21:05:50.235Z,73.80
2023-05-16T21:08:17.559Z,73.70
2023-05-16T21:10:47.238Z,73.80
2023-05-16T21:13:14.577Z,73.80
2023-05-16T21:15:41.924Z,73.80
2023-05-16T21:18:14.128Z,73.70
2023-05-16T21:20:41.466Z,73.70
2023-05-16T21:23:09.106Z,73.60
2023-05-16T21:25:38.892Z,73.50
2023-05-16T21:28:06.386Z,73.40
2023-05-16T21:30:33.690Z,73.30
2023-05-16T21:33:05.477Z,73.20
2023-05-16T21:35:32.842Z,73.20
2023-05-16T21:38:00.265Z,73.30
2023-05-16T21:40:28.915Z,73.20
2023-05-16T21:42:56.200Z,73.30
2023-05-16T21:45:23.768Z,73.20
2023-05-16T21:47:51.419Z,73.20
2023-05-16T21:50:20.138Z,73.20
2023-05-16T21:52:47.467Z,73.20
2023-05-16T21:55:17.075Z,73.40
2023-05-16T21:57:44.471Z,73.30
2023-05-16T22:00:12.678Z,73.20
2023-05-16T22:02:40.065Z,73.20
2023-05-16T22:05:08.310Z,73.20
2023-05-16T22:07:37.007Z,73.20
2023-05-16T22:10:05.175Z,73.20
2023-05-16T22:12:34.914Z,73.20
2023-05-16T22:15:02.371Z,73.20
2023-05-16T22:17:29.927Z,73.30
2023-05-16T22:19:57.406Z,73.30
2023-05-16T22:22:24.858Z,73.30
2023-05-16T22:24:52.127Z,73.30
2023-05-16T22:27:21.894Z,73.20
2023-05-16T22:29:53.862Z,73.20
2023-05-16T22:32:22.290Z,73.10
2023-05-16T22:34:49.730Z,73.10
2023-05-16T22:37:19.208Z,73.10
2023-05-16T22:39:46.730Z,73.00
2023-05-16T22:42:14.072Z,73.10
2023-05-16T22:44:41.492Z,73.10
2023-05-16T22:47:13.818Z,73.10
2023-05-16T22:52:49.831Z,73.00
2023-05-16T22:55:17.091Z,73.00
2023-05-16T22:57:48.671Z,73.20
2023-05-16T23:00:22.708Z,72.90
2023-05-16T23:02:55.060Z,72.80
2023-05-16T23:05:24.685Z,72.80
2023-05-16T23:07:51.965Z,72.70
2023-05-16T23:10:21.448Z,72.50
2023-05-16T23:12:51.611Z,72.70
2023-05-16T23:15:21.749Z,72.60
2023-05-16T23:17:51.773Z,72.70
2023-05-16T23:20:22.506Z,72.70
2023-05-16T23:22:54.515Z,73.20
2023-05-16T23:25:24.418Z,72.70
2023-05-16T23:27:57.529Z,72.80
2023-05-16T23:30:25.197Z,72.80
2023-05-16T23:32:55.022Z,72.90
2023-05-16T23:35:22.396Z,73.00
2023-05-16T23:37:49.683Z,73.00
2023-05-16T23:40:17.286Z,72.90
2023-05-16T23:42:46.814Z,72.90
2023-05-16T23:45:14.083Z,72.70
2023-05-16T23:47:43.630Z,72.60
2023-05-16T23:50:11.201Z,72.60
2023-05-16T23:52:38.523Z,72.40
2023-05-16T23:55:06.250Z,72.20
2023-05-16T23:57:33.603Z,72.20
